Time;durP1;ratioP1;P1;durP2;ratioP2;P2;SDS_P1;SDS_P2;PMS_P1;PMS_P2;Temp;Humidity;BMP_temperature;BMP_pressure;BME280_temperature;BME280_humidity;BME280_pressure;Samples;Min_cycle;Max_cycle;Signal;HPM_P1;HPM_P2
2023/01/16 00:00:23;;;;;;;8.07;4.03;;;4.60;99.90;;;;;;4973259;28;20202;-76
2023/01/16 00:02:55;;;;;;;7.00;4.10;;;4.60;99.90;;;;;;4973807;28;20599;-82
2023/01/16 00:05:22;;;;;;;8.27;4.13;;;4.60;99.90;;;;;;4972504;28;20205;-79
2023/01/16 00:07:49;;;;;;;9.03;4.53;;;4.60;99.90;;;;;;4973264;28;20208;-81
2023/01/16 00:10:16;;;;;;;6.03;3.90;;;4.60;99.90;;;;;;4974203;28;20196;-82
2023/01/16 00:12:46;;;;;;;8.27;4.30;;;4.60;99.90;;;;;;4973835;28;20216;-82
2023/01/16 00:15:13;;;;;;;7.77;4.20;;;4.60;99.90;;;;;;4988171;28;20207;-82
2023/01/16 00:17:40;;;;;;;8.67;4.60;;;4.60;99.90;;;;;;4973541;28;20243;-77
2023/01/16 00:20:07;;;;;;;7.83;4.47;;;4.60;99.90;;;;;;4992381;28;20212;-77
2023/01/16 00:22:34;;;;;;;6.77;4.47;;;4.60;99.90;;;;;;4975867;28;20299;-81
2023/01/16 00:25:01;;;;;;;7.93;4.63;;;4.60;99.90;;;;;;4977748;28;20277;-80
2023/01/16 00:27:28;;;;;;;7.63;4.87;;;4.50;99.90;;;;;;4976807;28;20213;-83
2023/01/16 00:29:55;;;;;;;7.07;4.30;;;4.70;99.90;;;;;;4960183;28;20200;-81
2023/01/16 00:32:22;;;;;;;9.83;5.23;;;4.50;99.90;;;;;;4960149;28;20234;-83
2023/01/16 00:34:49;;;;;;;7.33;4.80;;;4.50;99.90;;;;;;4977160;28;20646;-81
2023/01/16 00:37:16;;;;;;;8.73;4.80;;;4.50;99.90;;;;;;4976342;28;20673;-79
2023/01/16 00:39:43;;;;;;;8.60;5.47;;;4.60;99.90;;;;;;4975921;28;20284;-78
2023/01/16 00:42:10;;;;;;;9.43;5.13;;;4.40;99.90;;;;;;4978047;28;20226;-76
2023/01/16 00:44:36;;;;;;;8.77;5.33;;;4.40;99.90;;;;;;4976996;28;20190;-75
2023/01/16 00:47:04;;;;;;;10.03;5.30;;;4.40;99.90;;;;;;4991731;28;20644;-82
2023/01/16 00:49:31;;;;;;;9.63;5.43;;;4.40;99.90;;;;;;4991808;28;20264;-80
2023/01/16 00:51:58;;;;;;;9.30;5.40;;;4.30;99.90;;;;;;4975825;28;20317;-84
2023/01/16 00:54:25;;;;;;;9.93;5.73;;;4.30;99.90;;;;;;4975394;28;20190;-76
2023/01/16 00:56:52;;;;;;;9.23;6.57;;;4.30;99.90;;;;;;4975420;28;20303;-80
2023/01/16 00:59:19;;;;;;;11.17;6.47;;;4.30;99.90;;;;;;4975863;28;20220;-81
2023/01/16 01:01:46;;;;;;;11.10;6.03;;;4.40;99.90;;;;;;4976993;28;20204;-79
2023/01/16 01:04:13;;;;;;;10.07;6.17;;;4.30;99.90;;;;;;4959458;28;20205;-82
2023/01/16 01:06:40;;;;;;;10.30;6.33;;;4.30;99.90;;;;;;4975523;28;20233;-82
2023/01/16 01:09:07;;;;;;;11.27;6.80;;;4.20;99.90;;;;;;4960240;28;20193;-80
2023/01/16 01:11:34;;;;;;;11.87;6.53;;;4.40;99.90;;;;;;4975140;28;20231;-78
2023/01/16 01:14:01;;;;;;;9.97;6.10;;;4.20;99.90;;;;;;4975162;28;20212;-78
2023/01/16 01:16:28;;;;;;;11.80;6.40;;;4.40;99.90;;;;;;4975133;28;20204;-82
2023/01/16 01:19:01;;;;;;;10.97;6.13;;;4.30;99.90;;;;;;4975286;28;20203;-77
2023/01/16 01:21:47;;;;;;;11.53;6.10;;;4.20;99.90;;;;;;4976233;28;20175;-75
2023/01/16 01:24:14;;;;;;;12.47;6.63;;;4.20;99.90;;;;;;4974642;28;20245;-76
2023/01/16 01:26:41;;;;;;;11.50;6.37;;;4.20;99.90;;;;;;4958998;28;20202;-75
2023/01/16 01:29:19;;;;;;;10.07;6.10;;;4.10;99.90;;;;;;4974148;28;20209;-75
2023/01/16 01:31:52;;;;;;;11.00;6.30;;;4.10;99.90;;;;;;4974865;28;20552;-74
2023/01/16 01:34:19;;;;;;;10.17;5.87;;;4.10;99.90;;;;;;4974658;28;20309;-74
2023/01/16 01:36:48;;;;;;;9.93;6.13;;;4.10;99.90;;;;;;4987763;28;20225;-75
2023/01/16 01:39:15;;;;;;;10.93;6.13;;;4.20;99.90;;;;;;4995371;28;20191;-76
2023/01/16 01:41:45;;;;;;;10.27;6.00;;;4.10;99.90;;;;;;4995351;28;20226;-76
2023/01/16 01:44:54;;;;;;;9.87;5.73;;;4.00;99.90;;;;;;4978431;28;20191;-75
2023/01/16 01:47:32;;;;;;;9.93;5.63;;;4.10;99.90;;;;;;4896894;29;20216;-76
2023/01/16 01:50:02;;;;;;;10.57;6.00;;;4.10;99.90;;;;;;4970893;28;20224;-75
2023/01/16 01:52:32;;;;;;;9.30;5.60;;;4.20;99.90;;;;;;4977620;28;20768;-75
2023/01/16 01:55:10;;;;;;;9.93;5.93;;;4.00;99.90;;;;;;4961764;28;20707;-75
2023/01/16 01:57:45;;;;;;;10.40;5.97;;;4.00;99.90;;;;;;4995243;28;20204;-75
2023/01/16 02:00:19;;;;;;;9.37;4.93;;;4.00;99.90;;;;;;4994844;28;20529;-75
2023/01/16 02:03:25;;;;;;;9.40;5.80;;;4.00;99.90;;;;;;4994707;28;20272;-77
2023/01/16 02:05:57;;;;;;;10.23;5.90;;;4.10;99.90;;;;;;4881428;29;20218;-77
2023/01/16 02:08:28;;;;;;;10.47;6.20;;;4.00;99.90;;;;;;4897468;29;20622;-75
2023/01/16 02:11:25;;;;;;;9.57;5.60;;;3.90;99.90;;;;;;4896855;29;20240;-77
2023/01/16 02:14:04;;;;;;;10.67;6.13;;;3.90;99.90;;;;;;4881055;29;20707;-76
2023/01/16 02:19:22;;;;;;;9.57;5.87;;;3.90;99.90;;;;;;4896628;29;20668;-75
2023/01/16 02:22:34;;;;;;;9.60;6.00;;;3.80;99.90;;;;;;4880839;29;20205;-74
2023/01/16 02:25:25;;;;;;;10.90;5.87;;;3.80;99.90;;;;;;4881718;29;20206;-74
2023/01/16 02:28:16;;;;;;;12.07;6.67;;;3.90;99.90;;;;;;4896806;29;20285;-75
2023/01/16 02:31:13;;;;;;;10.73;6.53;;;3.80;99.90;;;;;;4896646;29;20212;-76
2023/01/16 02:33:59;;;;;;;12.17;6.40;;;3.60;99.90;;;;;;4896385;29;20580;-76
2023/01/16 02:37:08;;;;;;;11.20;6.57;;;3.80;99.90;;;;;;4880313;29;20233;-75
2023/01/16 02:40:09;;;;;;;11.37;6.90;;;3.70;99.90;;;;;;4880889;29;20706;-76
2023/01/16 02:43:09;;;;;;;13.07;6.80;;;3.60;99.90;;;;;;4932655;28;20226;-75
2023/01/16 02:46:10;;;;;;;11.77;6.43;;;3.60;99.90;;;;;;4961502;28;20202;-75
2023/01/16 02:48:56;;;;;;;11.50;6.77;;;3.60;99.90;;;;;;4976751;28;20193;-75
2023/01/16 02:51:39;;;;;;;12.80;7.10;;;3.50;99.90;;;;;;4993909;28;20251;-76
2023/01/16 02:54:32;;;;;;;12.13;6.63;;;3.60;99.90;;;;;;4960084;28;20277;-76
2023/01/16 02:57:07;;;;;;;12.17;6.70;;;3.40;99.90;;;;;;4994484;28;20241;-78
2023/01/16 02:59:34;;;;;;;11.87;7.17;;;3.50;99.90;;;;;;4993586;28;20203;-76
2023/01/16 03:02:02;;;;;;;12.93;6.97;;;3.40;99.90;;;;;;4976440;28;20217;-76
2023/01/16 03:04:36;;;;;;;12.27;7.30;;;3.40;99.90;;;;;;4960699;28;20574;-78
2023/01/16 03:07:33;;;;;;;12.27;7.17;;;3.40;99.90;;;;;;4993641;28;20193;-76
2023/01/16 03:10:35;;;;;;;12.87;7.33;;;3.40;99.90;;;;;;4951938;28;20198;-77
2023/01/16 03:13:22;;;;;;;12.77;7.23;;;3.40;99.90;;;;;;4960159;28;20647;-76
2023/01/16 03:16:16;;;;;;;13.67;7.07;;;3.30;99.90;;;;;;4991704;28;20208;-75
2023/01/16 03:19:09;;;;;;;14.00;7.40;;;3.30;99.90;;;;;;4992277;28;20201;-76
2023/01/16 03:21:36;;;;;;;11.47;6.87;;;3.30;99.90;;;;;;4976654;28;20529;-75
2023/01/16 03:24:32;;;;;;;13.73;7.20;;;3.20;99.90;;;;;;4993638;28;20220;-76
2023/01/16 03:27:15;;;;;;;12.03;7.40;;;3.20;99.90;;;;;;4976362;28;20299;-77
2023/01/16 03:30:20;;;;;;;14.47;8.10;;;3.20;99.90;;;;;;4993277;28;20193;-75
2023/01/16 03:32:57;;;;;;;13.10;7.50;;;3.10;99.90;;;;;;4993366;28;20220;-75
2023/01/16 03:35:29;;;;;;;15.50;7.97;;;3.20;99.90;;;;;;4975889;28;20205;-77
2023/01/16 03:38:01;;;;;;;15.93;8.23;;;3.20;99.90;;;;;;4976496;28;20196;-75
2023/01/16 03:40:34;;;;;;;14.60;7.23;;;3.20;99.90;;;;;;4976141;28;20543;-75
2023/01/16 03:43:11;;;;;;;12.80;7.90;;;3.20;99.90;;;;;;4976352;28;20232;-77
2023/01/16 03:45:45;;;;;;;13.53;7.80;;;3.10;99.90;;;;;;4975578;28;20201;-76
2023/01/16 03:48:27;;;;;;;12.60;7.93;;;3.10;99.90;;;;;;4975923;28;20208;-76
2023/01/16 03:51:03;;;;;;;14.27;7.27;;;3.10;99.90;;;;;;4993094;28;20196;-75
2023/01/16 03:53:51;;;;;;;12.53;7.37;;;3.00;99.90;;;;;;4978605;28;20227;-76
2023/01/16 03:56:42;;;;;;;13.17;7.27;;;3.10;99.90;;;;;;4979485;28;20275;-77
2023/01/16 03:59:09;;;;;;;16.27;8.10;;;3.00;99.90;;;;;;4967300;28;20264;-75
2023/01/16 04:01:48;;;;;;;12.37;7.13;;;3.00;99.90;;;;;;4997296;28;20212;-76
2023/01/16 04:04:37;;;;;;;13.20;7.57;;;3.00;99.90;;;;;;4996829;28;20198;-75
2023/01/16 04:07:21;;;;;;;14.30;7.73;;;2.90;99.90;;;;;;4979878;28;20205;-76
2023/01/16 04:09:59;;;;;;;12.93;7.23;;;3.10;99.90;;;;;;4996765;28;20190;-76
2023/01/16 04:12:34;;;;;;;14.87;7.50;;;2.80;99.90;;;;;;4963960;28;20221;-75
2023/01/16 04:15:06;;;;;;;15.47;7.57;;;3.00;99.90;;;;;;4979371;28;20287;-77
2023/01/16 04:17:35;;;;;;;13.77;7.50;;;3.00;99.90;;;;;;4963250;28;20209;-77
2023/01/16 04:20:07;;;;;;;11.73;7.13;;;3.00;99.90;;;;;;4996660;28;20310;-75
2023/01/16 04:22:38;;;;;;;12.63;7.37;;;2.90;99.90;;;;;;4996969;28;20652;-76
2023/01/16 04:25:08;;;;;;;13.67;7.50;;;2.90;99.90;;;;;;4996392;28;20211;-76
2023/01/16 04:27:35;;;;;;;13.03;7.13;;;2.90;99.90;;;;;;4979266;28;20228;-77
2023/01/16 04:30:05;;;;;;;14.70;7.60;;;2.80;99.90;;;;;;4978991;28;20197;-76
2023/01/16 04:32:32;;;;;;;13.50;7.93;;;2.80;99.90;;;;;;4996649;28;20249;-76
2023/01/16 04:34:59;;;;;;;13.70;7.63;;;2.90;99.90;;;;;;4963253;28;20196;-76
2023/01/16 04:37:26;;;;;;;12.60;7.30;;;2.80;99.90;;;;;;4996300;28;20233;-77
2023/01/16 04:39:53;;;;;;;13.50;7.57;;;2.90;99.90;;;;;;4963263;28;20192;-78
2023/01/16 04:42:20;;;;;;;13.80;7.17;;;2.90;99.90;;;;;;4978940;28;20225;-77
2023/01/16 04:44:47;;;;;;;14.80;7.23;;;2.80;99.90;;;;;;4962689;28;20631;-78
2023/01/16 04:47:15;;;;;;;12.67;7.20;;;2.90;99.90;;;;;;4962509;28;20219;-79
2023/01/16 04:49:42;;;;;;;12.43;7.33;;;2.80;99.90;;;;;;4979194;28;20205;-76
2023/01/16 04:52:25;;;;;;;11.40;7.00;;;2.70;99.90;;;;;;4978611;28;20220;-76
2023/01/16 04:54:52;;;;;;;13.27;7.43;;;2.70;99.90;;;;;;4962728;28;20580;-76
2023/01/16 04:57:19;;;;;;;13.30;7.33;;;2.70;99.90;;;;;;4978728;28;20277;-76
2023/01/16 04:59:49;;;;;;;11.73;7.07;;;2.70;99.90;;;;;;4996062;28;20279;-77
2023/01/16 05:02:16;;;;;;;12.67;7.30;;;2.70;99.90;;;;;;4978628;28;20205;-76
2023/01/16 05:04:43;;;;;;;11.30;7.03;;;2.60;99.90;;;;;;4977556;28;20201;-77
2023/01/16 05:07:10;;;;;;;12.53;7.20;;;2.70;99.90;;;;;;4978708;28;20200;-76
2023/01/16 05:09:37;;;;;;;10.40;6.87;;;2.60;99.90;;;;;;4996107;28;20536;-77
2023/01/16 05:12:07;;;;;;;12.30;7.10;;;2.50;99.90;;;;;;4962412;28;20233;-76
2023/01/16 05:14:35;;;;;;;10.73;6.70;;;2.50;99.90;;;;;;4962420;28;20200;-76
2023/01/16 05:17:02;;;;;;;13.53;6.83;;;2.50;99.90;;;;;;4978455;28;20652;-76
2023/01/16 05:19:28;;;;;;;11.30;6.70;;;2.50;99.90;;;;;;4978224;28;20201;-76
2023/01/16 05:21:56;;;;;;;13.33;6.73;;;2.70;99.90;;;;;;4995441;28;20536;-78
2023/01/16 05:24:23;;;;;;;12.07;6.60;;;2.50;99.90;;;;;;4995439;28;20185;-76
2023/01/16 05:26:51;;;;;;;10.77;6.57;;;2.50;99.90;;;;;;4995594;28;20261;-76
2023/01/16 05:29:18;;;;;;;10.40;6.03;;;2.60;99.90;;;;;;4978281;28;20550;-77
2023/01/16 05:31:48;;;;;;;11.23;6.10;;;2.60;99.90;;;;;;4978575;28;20200;-76
2023/01/16 05:34:23;;;;;;;10.50;6.30;;;2.60;99.90;;;;;;4995546;28;20193;-76
2023/01/16 05:36:50;;;;;;;10.43;6.27;;;2.50;99.90;;;;;;4978238;28;20713;-76
2023/01/16 05:39:20;;;;;;;10.83;6.07;;;2.50;99.90;;;;;;4977878;28;20213;-79
2023/01/16 05:41:47;;;;;;;11.30;6.67;;;2.50;99.90;;;;;;4994220;28;20659;-79
2023/01/16 05:44:17;;;;;;;10.23;5.97;;;2.50;99.90;;;;;;4977950;28;20212;-80
2023/01/16 05:46:44;;;;;;;9.80;5.90;;;2.40;99.90;;;;;;4961494;28;20295;-76
2023/01/16 05:49:21;;;;;;;10.73;5.33;;;2.50;99.90;;;;;;4996146;28;20208;-78
2023/01/16 05:51:58;;;;;;;;;;;;;;;;;;;;;
2023/01/16 05:54:26;;;;;;;9.30;6.10;;;2.40;99.90;;;;;;4977677;28;20556;-79
2023/01/16 05:56:53;;;;;;;11.60;5.97;;;2.40;99.90;;;;;;4977752;28;20189;-79
2023/01/16 05:59:19;;;;;;;11.67;6.07;;;2.50;99.90;;;;;;4978183;28;20208;-75
2023/01/16 06:01:46;;;;;;;10.83;5.93;;;2.30;99.90;;;;;;4995045;28;20201;-76
2023/01/16 06:04:19;;;;;;;10.90;5.93;;;2.30;99.90;;;;;;4977421;28;20234;-76
2023/01/16 06:06:55;;;;;;;9.50;5.57;;;2.30;99.90;;;;;;4977353;28;20208;-78
2023/01/16 06:09:22;;;;;;;9.73;5.50;;;2.30;99.90;;;;;;4994923;28;20232;-75
2023/01/16 06:12:00;;;;;;;9.97;6.03;;;2.30;99.90;;;;;;4997750;28;20205;-76
2023/01/16 06:14:27;;;;;;;9.27;5.60;;;2.40;99.90;;;;;;4977629;28;20201;-77
2023/01/16 06:17:04;;;;;;;10.30;5.97;;;2.40;99.90;;;;;;4976653;28;20209;-76
2023/01/16 06:19:31;;;;;;;11.43;5.43;;;2.40;99.90;;;;;;4977477;28;20228;-75
2023/01/16 06:21:58;;;;;;;9.77;5.47;;;2.40;99.90;;;;;;4977255;28;20674;-76
2023/01/16 06:24:25;;;;;;;9.27;5.40;;;2.40;99.90;;;;;;4977507;28;20203;-75
2023/01/16 06:26:52;;;;;;;9.27;5.70;;;2.20;99.90;;;;;;4977123;28;20561;-74
2023/01/16 06:29:19;;;;;;;10.17;5.63;;;2.20;99.90;;;;;;4993029;28;20204;-77
2023/01/16 06:31:54;;;;;;;10.00;5.60;;;2.20;99.90;;;;;;4993878;28;20202;-77
2023/01/16 06:34:24;;;;;;;9.43;5.80;;;2.20;99.90;;;;;;4961477;28;20213;-77
2023/01/16 06:36:51;;;;;;;10.03;6.00;;;2.30;99.90;;;;;;4976817;28;20225;-77
2023/01/16 06:39:21;;;;;;;11.00;5.63;;;2.40;99.90;;;;;;4976920;28;20205;-75
2023/01/16 06:41:50;;;;;;;10.50;5.90;;;2.30;99.90;;;;;;4977045;28;20251;-75
2023/01/16 06:44:17;;;;;;;10.80;5.83;;;2.30;99.90;;;;;;4976679;28;20201;-76
2023/01/16 06:46:44;;;;;;;11.80;5.53;;;2.30;99.90;;;;;;4976142;28;20286;-77
2023/01/16 06:49:14;;;;;;;10.87;5.77;;;2.20;99.90;;;;;;4914560;29;20209;-77
2023/01/16 06:51:45;;;;;;;10.73;5.83;;;2.30;99.90;;;;;;4914603;29;20227;-76
2023/01/16 06:54:12;;;;;;;10.60;5.60;;;2.30;99.90;;;;;;4915014;29;20728;-76
2023/01/16 06:56:41;;;;;;;11.47;5.20;;;2.30;99.90;;;;;;4914548;29;20622;-78
2023/01/16 06:59:13;;;;;;;10.87;5.53;;;2.30;99.90;;;;;;4898840;29;20629;-78
2023/01/16 07:01:43;;;;;;;9.67;5.57;;;2.40;99.90;;;;;;4915129;29;20206;-79
2023/01/16 07:04:10;;;;;;;10.80;5.67;;;2.30;99.90;;;;;;4880219;29;20196;-80
2023/01/16 07:06:39;;;;;;;8.90;5.57;;;2.20;99.90;;;;;;4892750;29;20198;-81
2023/01/16 07:09:09;;;;;;;8.83;5.03;;;2.30;99.90;;;;;;4969691;28;20206;-76
2023/01/16 07:11:37;;;;;;;10.87;5.40;;;2.40;99.90;;;;;;4953611;29;20258;-76
2023/01/16 07:22:50;;;;;;;10.77;5.33;;;2.40;99.90;;;;;;4970372;28;20547;-76
2023/01/16 07:25:32;;;;;;;7.97;5.10;;;2.60;99.90;;;;;;4937545;29;20197;-76
2023/01/16 07:27:59;;;;;;;11.70;5.60;;;2.40;99.90;;;;;;4937398;29;20198;-75
2023/01/16 07:30:29;;;;;;;10.20;5.50;;;2.40;99.90;;;;;;4955065;29;20202;-79
2023/01/16 07:33:00;;;;;;;10.30;5.57;;;2.50;99.90;;;;;;4954851;29;20228;-76
2023/01/16 07:35:27;;;;;;;9.50;5.53;;;2.50;99.90;;;;;;4954524;29;20656;-77
2023/01/16 07:38:00;;;;;;;11.00;5.53;;;2.50;99.90;;;;;;4935851;29;20183;-80
2023/01/16 07:40:30;;;;;;;9.17;5.60;;;2.60;99.90;;;;;;4918573;29;20205;-76
2023/01/16 07:42:59;;;;;;;10.67;5.73;;;2.60;99.90;;;;;;4918753;29;20314;-80
2023/01/16 07:45:29;;;;;;;11.10;5.90;;;2.50;99.90;;;;;;4949468;29;20202;-75
2023/01/16 07:47:56;;;;;;;10.07;6.07;;;2.70;99.90;;;;;;4950811;29;20204;-76
2023/01/16 07:50:23;;;;;;;11.13;5.80;;;3.00;99.90;;;;;;4950401;29;20198;-77
2023/01/16 07:52:50;;;;;;;10.77;5.90;;;3.30;99.90;;;;;;4949999;29;20229;-76
2023/01/16 07:55:17;;;;;;;10.17;5.90;;;3.60;99.90;;;;;;4935160;29;20199;-79
2023/01/16 07:57:44;;;;;;;9.50;5.43;;;3.90;99.90;;;;;;4934228;29;20535;-79
2023/01/16 08:00:12;;;;;;;9.03;5.57;;;4.00;99.90;;;;;;4950320;29;20203;-78
2023/01/16 08:02:39;;;;;;;12.93;5.80;;;4.00;99.90;;;;;;4918527;29;20254;-76
2023/01/16 08:05:07;;;;;;;10.87;5.47;;;4.00;99.90;;;;;;4918375;29;20203;-76
2023/01/16 08:07:35;;;;;;;9.40;5.33;;;3.60;99.90;;;;;;4918296;29;20204;-75
2023/01/16 08:10:04;;;;;;;9.37;5.50;;;3.50;99.90;;;;;;4918060;29;20199;-75
2023/01/16 08:12:34;;;;;;;9.70;5.53;;;3.40;99.90;;;;;;4934709;29;20196;-75
2023/01/16 08:15:06;;;;;;;8.00;5.07;;;3.40;99.90;;;;;;4917494;29;20560;-75
2023/01/16 08:17:33;;;;;;;11.57;5.80;;;3.40;99.90;;;;;;4933693;29;20204;-74
2023/01/16 08:20:01;;;;;;;10.23;5.63;;;3.40;99.90;;;;;;4949658;29;20199;-76
2023/01/16 08:22:28;;;;;;;12.23;6.07;;;3.50;99.90;;;;;;4949564;29;20687;-75
2023/01/16 08:24:55;;;;;;;10.70;5.77;;;3.70;99.90;;;;;;4933578;29;20262;-77
2023/01/16 08:27:32;;;;;;;12.33;5.47;;;3.90;99.90;;;;;;4934923;29;20196;-73
2023/01/16 08:29:58;;;;;;;12.03;5.77;;;3.80;99.90;;;;;;4918589;29;20226;-74
2023/01/16 08:32:32;;;;;;;9.80;5.60;;;3.80;99.90;;;;;;4948305;29;20216;-73
2023/01/16 08:35:00;;;;;;;10.03;5.73;;;3.70;99.90;;;;;;4943979;28;20282;-74
2023/01/16 08:37:27;;;;;;;10.13;5.90;;;3.70;99.90;;;;;;4941697;29;20258;-73
2023/01/16 08:39:54;;;;;;;9.10;5.60;;;3.70;99.90;;;;;;4955448;28;20720;-74
2023/01/16 08:53:53;;;;;;;12.30;6.27;;;3.60;99.90;;;;;;4935538;29;20289;-75
2023/01/16 08:56:21;;;;;;;9.33;5.57;;;3.70;99.90;;;;;;4955410;29;20200;-74
2023/01/16 08:58:49;;;;;;;10.77;5.87;;;3.80;99.90;;;;;;4956632;28;20198;-75
2023/01/16 09:01:16;;;;;;;10.40;5.93;;;3.80;99.90;;;;;;4951664;29;20225;-73
2023/01/16 09:03:49;;;;;;;13.10;6.03;;;3.70;99.90;;;;;;4939445;29;20234;-72
2023/01/16 09:06:16;;;;;;;9.93;5.37;;;3.70;99.90;;;;;;4932685;29;20555;-74
2023/01/16 09:08:43;;;;;;;9.40;5.57;;;3.80;99.90;;;;;;4953434;29;20200;-75
2023/01/16 09:14:00;;;;;;;9.10;5.67;;;3.70;99.90;;;;;;4956447;28;20262;-73
2023/01/16 09:16:27;;;;;;;12.57;5.53;;;3.80;99.90;;;;;;4923963;29;20198;-75
2023/01/16 09:18:54;;;;;;;10.10;5.20;;;3.90;99.90;;;;;;4954857;29;20287;-75
2023/01/16 09:21:24;;;;;;;10.60;6.50;;;3.90;99.90;;;;;;4955506;29;20195;-76
2023/01/16 09:23:52;;;;;;;11.57;6.20;;;3.90;99.90;;;;;;4939799;29;20198;-76
2023/01/16 09:26:19;;;;;;;12.23;6.43;;;3.90;99.90;;;;;;4955073;29;20199;-77
2023/01/16 09:28:46;;;;;;;11.87;6.47;;;3.90;99.90;;;;;;4954912;29;20227;-76
2023/01/16 09:31:13;;;;;;;10.17;6.23;;;4.10;99.90;;;;;;4955360;29;20197;-74
2023/01/16 09:33:41;;;;;;;12.87;6.33;;;4.20;99.90;;;;;;4956093;28;20221;-74
2023/01/16 09:36:08;;;;;;;10.43;5.73;;;4.30;99.90;;;;;;4960623;28;20239;-74
2023/01/16 09:38:35;;;;;;;12.40;6.10;;;4.40;99.90;;;;;;4990531;28;20203;-74
2023/01/16 09:41:03;;;;;;;9.87;5.53;;;4.40;99.90;;;;;;4974971;28;20192;-77
2023/01/16 09:43:39;;;;;;;12.83;6.07;;;4.50;99.90;;;;;;4974011;28;20316;-76
2023/01/16 09:46:19;;;;;;;11.20;5.70;;;4.60;99.90;;;;;;4973665;28;20247;-76
2023/01/16 09:48:50;;;;;;;10.73;5.90;;;4.80;99.90;;;;;;4974794;28;20194;-74
2023/01/16 09:51:25;;;;;;;11.30;6.23;;;4.70;99.90;;;;;;4941237;28;20202;-78
2023/01/16 09:59:42;;;;;;;11.50;6.30;;;4.60;99.90;;;;;;4973791;28;20249;-75
2023/01/16 10:02:24;;;;;;;10.93;6.27;;;4.50;99.90;;;;;;4973764;28;20218;-75
2023/01/16 10:04:56;;;;;;;10.37;5.97;;;4.60;99.90;;;;;;4973311;28;20204;-73
2023/01/16 10:07:30;;;;;;;13.70;6.83;;;4.60;99.90;;;;;;4973486;28;20281;-76
2023/01/16 10:10:18;;;;;;;13.50;6.57;;;4.60;99.90;;;;;;4972868;28;20201;-77
2023/01/16 10:13:01;;;;;;;12.03;6.57;;;4.80;99.90;;;;;;4973728;28;20215;-75
2023/01/16 10:15:39;;;;;;;11.70;6.70;;;4.70;99.90;;;;;;4972567;28;20727;-76
2023/01/16 10:18:38;;;;;;;11.77;6.57;;;4.70;99.90;;;;;;4974363;28;20207;-75
2023/01/16 10:21:23;;;;;;;10.00;6.37;;;4.80;99.90;;;;;;4973158;28;20285;-74
2023/01/16 10:24:00;;;;;;;11.40;6.53;;;5.00;99.90;;;;;;4972879;28;20202;-75
2023/01/16 10:26:34;;;;;;;12.30;5.93;;;4.90;99.90;;;;;;4974024;28;20253;-80
2023/01/16 10:29:15;;;;;;;12.57;6.70;;;5.00;99.90;;;;;;4968907;28;20248;-74
2023/01/16 10:31:51;;;;;;;13.33;6.53;;;5.10;99.90;;;;;;4972898;28;20669;-78
2023/01/16 10:34:23;;;;;;;12.67;6.37;;;5.10;99.90;;;;;;4957399;28;20679;-76
2023/01/16 10:36:57;;;;;;;11.40;6.43;;;5.20;99.90;;;;;;4972420;28;20778;-76
2023/01/16 10:39:30;;;;;;;10.87;6.20;;;5.30;99.90;;;;;;4989190;28;20273;-77
2023/01/16 10:50:45;;;;;;;12.80;6.13;;;5.20;99.90;;;;;;4966510;28;20235;-77
2023/01/16 10:53:13;;;;;;;12.90;6.40;;;5.20;99.90;;;;;;4970880;28;20620;-77
2023/01/16 10:55:44;;;;;;;11.23;6.07;;;5.30;99.90;;;;;;4972704;28;20208;-78
2023/01/16 10:58:25;;;;;;;14.53;6.40;;;5.20;99.90;;;;;;4971773;28;20197;-77
2023/01/16 11:01:01;;;;;;;11.70;6.67;;;5.30;99.90;;;;;;4967771;28;20303;-77
2023/01/16 11:03:34;;;;;;;13.40;7.00;;;5.20;99.90;;;;;;4941083;28;20216;-78
2023/01/16 11:06:20;;;;;;;13.37;6.80;;;5.20;99.90;;;;;;4973756;28;20521;-78
2023/01/16 11:08:49;;;;;;;12.20;6.77;;;5.20;99.90;;;;;;4972427;28;20203;-78
2023/01/16 11:20:16;;;;;;;13.60;7.40;;;5.30;99.90;;;;;;4964385;28;20222;-78
2023/01/16 11:22:47;;;;;;;14.13;8.10;;;5.20;99.90;;;;;;4972571;28;20216;-80
2023/01/16 11:25:18;;;;;;;16.60;8.23;;;5.30;99.90;;;;;;4956308;28;20561;-78
2023/01/16 11:27:46;;;;;;;16.30;9.03;;;5.10;99.90;;;;;;4973077;28;20196;-85
2023/01/16 11:30:26;;;;;;;16.30;9.50;;;5.10;99.90;;;;;;4956302;28;20667;-87
2023/01/16 11:32:56;;;;;;;20.30;10.40;;;5.10;99.90;;;;;;4972818;28;20244;-80
2023/01/16 11:35:32;;;;;;;18.73;10.20;;;5.00;99.90;;;;;;4972395;28;20230;-80
2023/01/16 11:38:02;;;;;;;22.70;11.00;;;5.00;99.90;;;;;;4972695;28;20611;-80
2023/01/16 11:40:35;;;;;;;21.80;11.60;;;4.90;99.90;;;;;;4972512;28;20270;-81
2023/01/16 11:46:11;;;;;;;22.67;10.80;;;4.90;99.90;;;;;;4988259;28;20201;-80
2023/01/16 11:48:48;;;;;;;21.40;10.63;;;4.80;99.90;;;;;;4972184;28;20605;-80
2023/01/16 11:51:23;;;;;;;22.97;11.10;;;4.90;99.90;;;;;;4988126;28;20622;-79
2023/01/16 11:53:51;;;;;;;21.07;11.13;;;4.90;99.90;;;;;;4969942;28;20232;-79
2023/01/16 11:57:08;;;;;;;21.10;11.40;;;4.90;99.90;;;;;;4972024;28;20211;-79
2023/01/16 11:59:54;;;;;;;21.33;11.50;;;4.90;99.90;;;;;;4928495;29;20611;-83
2023/01/16 12:02:59;;;;;;;20.23;11.20;;;5.00;99.90;;;;;;4912784;29;20303;-78
2023/01/16 12:05:54;;;;;;;22.97;11.60;;;4.90;99.90;;;;;;4914847;29;20202;-80
2023/01/16 12:08:35;;;;;;;20.10;11.10;;;4.90;99.90;;;;;;4897718;29;20218;-78
2023/01/16 12:11:29;;;;;;;22.83;12.20;;;4.90;99.90;;;;;;4929713;29;20197;-81
2023/01/16 12:14:25;;;;;;;18.67;11.60;;;4.90;99.90;;;;;;4934779;29;20294;-85
2023/01/16 12:17:22;;;;;;;27.20;13.03;;;4.80;99.90;;;;;;4914916;29;20754;-83
2023/01/16 12:20:04;;;;;;;23.77;13.07;;;4.70;99.90;;;;;;4924038;29;20284;-81
2023/01/16 12:23:08;;;;;;;23.33;13.00;;;4.70;99.90;;;;;;4925732;29;20668;-81
2023/01/16 12:25:56;;;;;;;23.20;12.90;;;4.50;99.90;;;;;;4886396;29;20190;-79
2023/01/16 12:29:05;;;;;;;24.07;13.33;;;4.50;99.90;;;;;;4896919;29;20731;-85
2023/01/16 12:31:46;;;;;;;24.27;12.93;;;4.50;99.90;;;;;;4976596;28;20233;-84
2023/01/16 12:34:32;;;;;;;23.03;13.40;;;4.50;99.90;;;;;;4971847;28;20313;-87
2023/01/16 12:37:13;;;;;;;23.70;13.57;;;4.50;99.90;;;;;;4960003;28;20265;-83
2023/01/16 12:39:54;;;;;;;22.43;12.77;;;4.50;99.90;;;;;;4961464;28;20252;-79
2023/01/16 12:46:02;;;;;;;23.23;13.33;;;4.40;99.90;;;;;;4975681;28;20299;-78
2023/01/16 12:49:04;;;;;;;23.83;13.80;;;4.40;99.90;;;;;;4976003;28;20194;-80
2023/01/16 12:51:46;;;;;;;27.13;14.90;;;4.40;99.90;;;;;;4991078;28;20201;-84
2023/01/16 12:54:27;;;;;;;24.53;13.57;;;4.40;99.90;;;;;;4991858;28;20223;-82
2023/01/16 12:57:20;;;;;;;25.03;13.20;;;4.40;99.90;;;;;;4991637;28;20281;-79
2023/01/16 13:00:09;;;;;;;25.80;13.30;;;4.40;99.90;;;;;;4976487;28;20257;-81
2023/01/16 13:02:59;;;;;;;24.10;13.10;;;4.50;99.90;;;;;;4976368;28;20186;-84
2023/01/16 13:05:38;;;;;;;22.57;12.67;;;4.40;99.90;;;;;;4980427;28;20194;-86
2023/01/16 13:08:44;;;;;;;22.60;12.70;;;4.40;99.90;;;;;;4975230;28;20204;-86
2023/01/16 13:14:33;;;;;;;24.63;13.07;;;4.30;99.90;;;;;;4900554;29;20224;-86
2023/01/16 13:17:07;;;;;;;25.83;13.77;;;4.30;99.90;;;;;;4901284;29;20301;-78
2023/01/16 13:19:39;;;;;;;24.03;13.80;;;4.20;99.90;;;;;;4903923;29;20651;-81
2023/01/16 13:22:18;;;;;;;24.53;13.77;;;4.20;99.90;;;;;;4886338;29;20204;-85
2023/01/16 13:25:03;;;;;;;26.47;15.53;;;4.30;99.90;;;;;;4915870;29;20206;-85
2023/01/16 13:27:44;;;;;;;26.77;14.37;;;4.30;99.90;;;;;;4915506;29;20188;-82
2023/01/16 13:30:17;;;;;;;30.13;14.70;;;4.40;99.90;;;;;;4900650;29;20613;-79
2023/01/16 13:32:59;;;;;;;29.80;15.67;;;4.30;99.90;;;;;;4900622;29;20206;-83
2023/01/16 13:35:29;;;;;;;30.33;15.63;;;4.30;99.90;;;;;;4927638;29;20238;-81
2023/01/16 13:38:18;;;;;;;29.30;16.20;;;4.40;99.90;;;;;;4935074;29;20197;-88
2023/01/16 13:40:52;;;;;;;28.67;15.77;;;4.30;99.90;;;;;;4929547;29;20279;-88
2023/01/16 13:46:25;;;;;;;27.70;14.53;;;4.30;99.90;;;;;;4900092;29;20283;-88
2023/01/16 13:48:55;;;;;;;31.40;16.37;;;4.30;99.90;;;;;;4903290;29;20217;-86
2023/01/16 13:51:25;;;;;;;35.53;17.20;;;4.50;99.90;;;;;;4903538;29;20199;-80
2023/01/16 13:54:04;;;;;;;32.27;16.37;;;4.50;99.90;;;;;;4903249;29;20655;-86
2023/01/16 13:56:32;;;;;;;31.67;17.47;;;4.70;99.90;;;;;;4918991;29;20287;-83
2023/01/16 13:59:08;;;;;;;30.83;16.40;;;4.80;99.90;;;;;;4918943;29;20697;-84
2023/01/16 14:01:56;;;;;;;30.53;16.13;;;4.90;99.90;;;;;;4918738;29;20217;-84
2023/01/16 14:04:23;;;;;;;30.13;16.03;;;4.80;99.90;;;;;;4934610;29;20209;-82
2023/01/16 14:09:58;;;;;;;27.00;14.83;;;4.80;99.90;;;;;;4920090;29;20195;-84
2023/01/16 14:12:40;;;;;;;29.00;15.47;;;4.80;99.90;;;;;;4934600;29;20554;-80
2023/01/16 14:18:18;;;;;;;30.70;15.40;;;4.80;99.90;;;;;;4918709;29;20594;-78
2023/01/16 14:20:45;;;;;;;27.30;15.03;;;4.70;99.90;;;;;;4918335;29;20320;-85
2023/01/16 14:26:23;;;;;;;25.37;14.27;;;4.70;99.90;;;;;;4954573;29;20202;-77
2023/01/16 14:28:56;;;;;;;25.60;13.77;;;4.70;99.90;;;;;;4955701;29;20658;-77
2023/01/16 14:31:51;;;;;;;26.07;13.20;;;4.60;99.90;;;;;;4938727;29;20215;-78
2023/01/16 14:34:22;;;;;;;22.83;12.70;;;4.60;99.90;;;;;;4954067;29;20234;-77
2023/01/16 14:36:53;;;;;;;22.77;12.60;;;4.60;99.90;;;;;;4931464;29;20293;-80